Chesapeake, Ohio
Current Conditions -  °F | °C
As of 11:51 AM on Sunday 23 Nov 2014 (Local Time) from KHTS Reporting Station
Clear Clear  
Wind Chill: 64°   Ceiling: Unl
Heat Index: 64°   Visibility: 10mi
Dew Point: 41°   Wind: 9mph
Humidity: 43%   Direction: 130°SE
Pressure: 29.93"   Gusts: NA
Location:  38.43°N, 82.46°W
Report Text: KHTS 231651Z 13008KT 10SM CLR 18/05 A2993 RMK AO2 SLP131 T01780050
Loading
Personal Weather Stations






























Interactive Weather Map New forecast layout! Learn more

10-Day Weather Forecast

Advertisements
Track Severe Weather on mobile